createdAt,value
2023-05-18T00:19:09.821Z,94.40
2023-05-18T01:10:17.126Z,92.10
2023-05-18T01:45:17.769Z,94.70
2023-05-18T02:10:38.302Z,96.40
2023-05-18T02:36:40.197Z,99.90
2023-05-18T03:16:32.668Z,99.90
2023-05-18T03:37:08.405Z,99.90
2023-05-18T03:57:28.612Z,99.80
2023-05-18T04:26:47.388Z,98.20
2023-05-18T05:32:38.214Z,97.10
2023-05-18T05:53:08.151Z,97.10
2023-05-18T06:23:15.101Z,93.60
2023-05-18T06:43:51.324Z,89.50
2023-05-18T07:04:22.521Z,88.30
2023-05-18T07:29:37.187Z,88.40
2023-05-18T07:49:30.966Z,84.70
2023-05-18T08:50:47.527Z,81.40
2023-05-18T09:36:30.594Z,83.30
2023-05-18T10:01:30.225Z,81.80
2023-05-18T10:27:12.329Z,82.50
2023-05-18T10:57:35.478Z,78.70
2023-05-18T11:33:12.649Z,77.70
2023-05-18T12:03:28.617Z,75.90
2023-05-18T12:28:21.380Z,77.30
2023-05-18T12:48:58.700Z,68.70
2023-05-18T13:14:10.784Z,71.80
2023-05-18T13:44:22.582Z,72.40
2023-05-18T14:05:08.641Z,78.30
2023-05-18T14:30:29.395Z,77.00
2023-05-18T15:00:28.724Z,79.80
2023-05-18T16:01:24.612Z,81.30
2023-05-18T16:47:34.068Z,83.30
2023-05-18T17:12:50.054Z,84.50
2023-05-18T18:23:42.754Z,90.30
2023-05-18T18:49:17.431Z,91.90
2023-05-18T18:53:41.223Z,92.40
2023-05-18T19:19:47.481Z,93.30
2023-05-18T19:44:49.426Z,91.30
2023-05-18T20:00:17.078Z,92.20
2023-05-18T20:25:35.320Z,91.20
2023-05-18T20:45:53.773Z,88.80
2023-05-18T21:15:49.551Z,90.00
2023-05-18T21:41:38.842Z,91.60
2023-05-18T22:26:45.299Z,99.90
2023-05-18T23:23:07.047Z,99.90
2023-05-18T23:52:55.674Z,99.90
